sensor_id;sensor_type;location;lat;lon;timestamp;pressure;altitude;pressure_sealevel;temperature;humidity
32131;BME280;18639;50.716;7.086;2022-12-10T00:02:06;99548.66;;;0.74;100.00
32131;BME280;18639;50.716;7.086;2022-12-10T00:08:46;99440.03;;;-0.11;100.00
32131;BME280;18639;50.716;7.086;2022-12-10T00:11:50;99444.19;;;-0.10;100.00
32131;BME280;18639;50.716;7.086;2022-12-10T00:38:18;99495.09;;;0.33;100.00
32131;BME280;18639;50.716;7.086;2022-12-10T00:48:22;99579.03;;;1.00;100.00
32131;BME280;18639;50.716;7.086;2022-12-10T00:51:21;99494.13;;;0.59;100.00
32131;BME280;18639;50.716;7.086;2022-12-10T00:56:49;99470.78;;;0.50;100.00
32131;BME280;18639;50.716;7.086;2022-12-10T00:59:23;99506.09;;;0.79;100.00
32131;BME280;18639;50.716;7.086;2022-12-10T01:02:02;99503.88;;;0.70;100.00
32131;BME280;18639;50.716;7.086;2022-12-10T01:04:45;99467.78;;;0.62;100.00
32131;BME280;18639;50.716;7.086;2022-12-10T01:07:15;99570.44;;;1.24;100.00
32131;BME280;18639;50.716;7.086;2022-12-10T01:09:47;99460.16;;;0.62;100.00
32131;BME280;18639;50.716;7.086;2022-12-10T01:12:23;99569.56;;;1.25;100.00
32131;BME280;18639;50.716;7.086;2022-12-10T01:14:49;99512.47;;;0.89;100.00
32131;BME280;18639;50.716;7.086;2022-12-10T01:17:19;99580.44;;;1.29;100.00
32131;BME280;18639;50.716;7.086;2022-12-10T01:19:49;99580.38;;;1.31;100.00
32131;BME280;18639;50.716;7.086;2022-12-10T01:22:15;99548.28;;;1.06;100.00
32131;BME280;18639;50.716;7.086;2022-12-10T01:24:40;99537.81;;;1.12;100.00
32131;BME280;18639;50.716;7.086;2022-12-10T01:27:06;99599.28;;;1.45;100.00
32131;BME280;18639;50.716;7.086;2022-12-10T01:29:34;99534.53;;;1.10;100.00
32131;BME280;18639;50.716;7.086;2022-12-10T01:32:16;99502.25;;;0.91;100.00
32131;BME280;18639;50.716;7.086;2022-12-10T01:48:30;99526.03;;;1.11;100.00
32131;BME280;18639;50.716;7.086;2022-12-10T02:02:49;99604.56;;;1.62;100.00
32131;BME280;18639;50.716;7.086;2022-12-10T02:10:55;99607.53;;;1.52;100.00
32131;BME280;18639;50.716;7.086;2022-12-10T02:39:54;99622.00;;;1.72;100.00
32131;BME280;18639;50.716;7.086;2022-12-10T02:43:21;99502.97;;;0.94;100.00
32131;BME280;18639;50.716;7.086;2022-12-10T02:49:41;99612.59;;;1.74;100.00
32131;BME280;18639;50.716;7.086;2022-12-10T03:12:55;99626.16;;;1.74;100.00
32131;BME280;18639;50.716;7.086;2022-12-10T03:15:24;99579.84;;;1.44;100.00
32131;BME280;18639;50.716;7.086;2022-12-10T03:17:53;99553.41;;;1.26;100.00
32131;BME280;18639;50.716;7.086;2022-12-10T03:23:40;99551.88;;;1.22;100.00
32131;BME280;18639;50.716;7.086;2022-12-10T03:26:55;99624.72;;;1.67;100.00
32131;BME280;18639;50.716;7.086;2022-12-10T03:29:46;99628.06;;;1.69;100.00
32131;BME280;18639;50.716;7.086;2022-12-10T03:36:46;99630.47;;;1.72;100.00
32131;BME280;18639;50.716;7.086;2022-12-10T04:10:13;99642.03;;;1.37;100.00
32131;BME280;18639;50.716;7.086;2022-12-10T04:13:05;99593.22;;;1.06;100.00
32131;BME280;18639;50.716;7.086;2022-12-10T04:15:58;99561.06;;;0.81;100.00
32131;BME280;18639;50.716;7.086;2022-12-10T04:19:26;99644.22;;;1.24;100.00
32131;BME280;18639;50.716;7.086;2022-12-10T04:22:24;99590.09;;;0.76;100.00
32131;BME280;18639;50.716;7.086;2022-12-10T04:25:14;99486.28;;;0.20;100.00
32131;BME280;18639;50.716;7.086;2022-12-10T04:27:59;99579.09;;;0.75;100.00
32131;BME280;18639;50.716;7.086;2022-12-10T04:30:24;99665.81;;;1.14;100.00
32131;BME280;18639;50.716;7.086;2022-12-10T04:32:50;99573.44;;;0.69;100.00
32131;BME280;18639;50.716;7.086;2022-12-10T04:35:17;99580.94;;;0.72;100.00
32131;BME280;18639;50.716;7.086;2022-12-10T04:37:45;99574.97;;;0.73;100.00
32131;BME280;18639;50.716;7.086;2022-12-10T04:40:11;99612.84;;;1.02;100.00
32131;BME280;18639;50.716;7.086;2022-12-10T04:50:06;99645.00;;;1.26;100.00
32131;BME280;18639;50.716;7.086;2022-12-10T05:31:14;99659.25;;;1.31;100.00
32131;BME280;18639;50.716;7.086;2022-12-10T05:37:37;99561.44;;;0.72;100.00
32131;BME280;18639;50.716;7.086;2022-12-10T05:47:49;99675.41;;;1.30;100.00
32131;BME280;18639;50.716;7.086;2022-12-10T06:29:57;99689.34;;;1.43;100.00
32131;BME280;18639;50.716;7.086;2022-12-10T06:32:22;99685.13;;;1.42;100.00
32131;BME280;18639;50.716;7.086;2022-12-10T06:34:48;99688.69;;;1.38;100.00
32131;BME280;18639;50.716;7.086;2022-12-10T06:37:13;99662.84;;;1.25;100.00
32131;BME280;18639;50.716;7.086;2022-12-10T06:39:38;99682.03;;;1.34;100.00
32131;BME280;18639;50.716;7.086;2022-12-10T06:42:03;99697.84;;;1.42;100.00
32131;BME280;18639;50.716;7.086;2022-12-10T06:44:30;99689.63;;;1.35;100.00
32131;BME280;18639;50.716;7.086;2022-12-10T06:46:55;99702.09;;;1.19;100.00
32131;BME280;18639;50.716;7.086;2022-12-10T06:49:21;99607.34;;;0.68;100.00
32131;BME280;18639;50.716;7.086;2022-12-10T06:51:49;99709.72;;;1.19;100.00
32131;BME280;18639;50.716;7.086;2022-12-10T06:54:15;99691.53;;;1.07;100.00
32131;BME280;18639;50.716;7.086;2022-12-10T06:56:40;99644.06;;;0.84;100.00
32131;BME280;18639;50.716;7.086;2022-12-10T06:59:06;99618.44;;;0.65;100.00
32131;BME280;18639;50.716;7.086;2022-12-10T07:01:42;99720.56;;;1.24;100.00
32131;BME280;18639;50.716;7.086;2022-12-10T07:04:07;99688.22;;;1.05;100.00
32131;BME280;18639;50.716;7.086;2022-12-10T07:06:33;99714.44;;;1.07;100.00
32131;BME280;18639;50.716;7.086;2022-12-10T07:08:58;99717.94;;;1.03;100.00
32131;BME280;18639;50.716;7.086;2022-12-10T07:11:24;99734.41;;;1.17;100.00
32131;BME280;18639;50.716;7.086;2022-12-10T07:13:50;99731.72;;;1.20;100.00
32131;BME280;18639;50.716;7.086;2022-12-10T07:16:22;99716.72;;;1.13;100.00
32131;BME280;18639;50.716;7.086;2022-12-10T07:18:48;99729.19;;;1.20;100.00
32131;BME280;18639;50.716;7.086;2022-12-10T07:21:15;99730.84;;;1.21;100.00
32131;BME280;18639;50.716;7.086;2022-12-10T07:23:41;99735.59;;;1.31;100.00
32131;BME280;18639;50.716;7.086;2022-12-10T07:26:06;99675.97;;;0.91;100.00
32131;BME280;18639;50.716;7.086;2022-12-10T07:28:33;99748.16;;;1.35;100.00
32131;BME280;18639;50.716;7.086;2022-12-10T07:31:02;99734.88;;;1.27;100.00
32131;BME280;18639;50.716;7.086;2022-12-10T07:33:28;99719.13;;;1.17;100.00
32131;BME280;18639;50.716;7.086;2022-12-10T07:35:53;99715.63;;;1.20;100.00
32131;BME280;18639;50.716;7.086;2022-12-10T07:38:19;99727.25;;;1.27;100.00
32131;BME280;18639;50.716;7.086;2022-12-10T07:40:44;99751.31;;;1.42;100.00
32131;BME280;18639;50.716;7.086;2022-12-10T07:43:09;99705.16;;;1.06;100.00
32131;BME280;18639;50.716;7.086;2022-12-10T07:52:59;99703.47;;;1.05;100.00
32131;BME280;18639;50.716;7.086;2022-12-10T07:55:25;99768.78;;;1.51;100.00
32131;BME280;18639;50.716;7.086;2022-12-10T07:57:50;99762.16;;;1.47;100.00
32131;BME280;18639;50.716;7.086;2022-12-10T08:00:16;99775.34;;;1.56;100.00
32131;BME280;18639;50.716;7.086;2022-12-10T08:02:41;99735.06;;;1.22;100.00
32131;BME280;18639;50.716;7.086;2022-12-10T08:05:06;99769.25;;;1.60;100.00
32131;BME280;18639;50.716;7.086;2022-12-10T08:07:32;99693.91;;;1.11;100.00
32131;BME280;18639;50.716;7.086;2022-12-10T08:17:07;99659.19;;;0.87;100.00
32131;BME280;18639;50.716;7.086;2022-12-10T08:22:38;99658.19;;;0.91;100.00
32131;BME280;18639;50.716;7.086;2022-12-10T08:25:07;99648.78;;;0.93;100.00
32131;BME280;18639;50.716;7.086;2022-12-10T08:27:33;99725.69;;;1.46;100.00
32131;BME280;18639;50.716;7.086;2022-12-10T08:30:01;99758.94;;;1.65;100.00
32131;BME280;18639;50.716;7.086;2022-12-10T08:32:40;99714.34;;;1.32;100.00
32131;BME280;18639;50.716;7.086;2022-12-10T08:35:08;99666.09;;;1.07;100.00
32131;BME280;18639;50.716;7.086;2022-12-10T08:37:33;99726.69;;;1.42;100.00
32131;BME280;18639;50.716;7.086;2022-12-10T08:40:37;99666.16;;;1.05;100.00
32131;BME280;18639;50.716;7.086;2022-12-10T08:43:03;99675.16;;;1.14;100.00
32131;BME280;18639;50.716;7.086;2022-12-10T08:45:57;99678.56;;;1.13;100.00
32131;BME280;18639;50.716;7.086;2022-12-10T08:52:27;99731.38;;;1.53;100.00
32131;BME280;18639;50.716;7.086;2022-12-10T08:55:38;99821.19;;;2.01;100.00
32131;BME280;18639;50.716;7.086;2022-12-10T08:58:19;99685.75;;;1.25;100.00
32131;BME280;18639;50.716;7.086;2022-12-10T09:00:45;99791.44;;;1.80;100.00
32131;BME280;18639;50.716;7.086;2022-12-10T09:03:11;99722.06;;;1.52;100.00
32131;BME280;18639;50.716;7.086;2022-12-10T09:05:40;99705.94;;;1.30;100.00
32131;BME280;18639;50.716;7.086;2022-12-10T09:08:06;99735.91;;;1.45;100.00
32131;BME280;18639;50.716;7.086;2022-12-10T09:10:35;99752.53;;;1.55;100.00
32131;BME280;18639;50.716;7.086;2022-12-10T09:16:21;99747.81;;;1.66;100.00
32131;BME280;18639;50.716;7.086;2022-12-10T09:19:01;99815.75;;;2.10;100.00
32131;BME280;18639;50.716;7.086;2022-12-10T09:21:31;99734.34;;;1.64;100.00
32131;BME280;18639;50.716;7.086;2022-12-10T09:23:57;99763.72;;;1.73;100.00
32131;BME280;18639;50.716;7.086;2022-12-10T09:26:36;99830.41;;;1.82;100.00
32131;BME280;18639;50.716;7.086;2022-12-10T09:29:05;99768.28;;;1.64;100.00
32131;BME280;18639;50.716;7.086;2022-12-10T09:34:59;99832.47;;;2.18;100.00
32131;BME280;18639;50.716;7.086;2022-12-10T09:37:25;99762.28;;;1.87;100.00
32131;BME280;18639;50.716;7.086;2022-12-10T09:43:00;99763.31;;;1.83;100.00
32131;BME280;18639;50.716;7.086;2022-12-10T09:45:58;99816.81;;;2.27;100.00
32131;BME280;18639;50.716;7.086;2022-12-10T09:51:19;99822.59;;;2.30;100.00
32131;BME280;18639;50.716;7.086;2022-12-10T09:53:46;99824.88;;;2.38;100.00
32131;BME280;18639;50.716;7.086;2022-12-10T09:56:26;99820.78;;;2.34;100.00
32131;BME280;18639;50.716;7.086;2022-12-10T09:58:52;99821.06;;;2.26;100.00
32131;BME280;18639;50.716;7.086;2022-12-10T10:01:19;99798.31;;;2.22;100.00
32131;BME280;18639;50.716;7.086;2022-12-10T10:03:52;99815.28;;;2.23;100.00
32131;BME280;18639;50.716;7.086;2022-12-10T10:06:27;99820.25;;;2.26;100.00
32131;BME280;18639;50.716;7.086;2022-12-10T10:08:56;99823.53;;;2.29;100.00
32131;BME280;18639;50.716;7.086;2022-12-10T10:11:28;99810.88;;;2.26;100.00
32131;BME280;18639;50.716;7.086;2022-12-10T10:13:59;99821.63;;;2.34;100.00
32131;BME280;18639;50.716;7.086;2022-12-10T10:16:32;99802.09;;;2.33;100.00
32131;BME280;18639;50.716;7.086;2022-12-10T10:19:06;99821.19;;;2.45;100.00
32131;BME280;18639;50.716;7.086;2022-12-10T10:21:39;99817.63;;;2.49;100.00
32131;BME280;18639;50.716;7.086;2022-12-10T10:24:06;99820.94;;;2.51;100.00
32131;BME280;18639;50.716;7.086;2022-12-10T10:26:35;99815.19;;;2.46;100.00
32131;BME280;18639;50.716;7.086;2022-12-10T10:29:04;99812.38;;;2.52;100.00
32131;BME280;18639;50.716;7.086;2022-12-10T10:31:31;99810.41;;;2.38;100.00
32131;BME280;18639;50.716;7.086;2022-12-10T10:34:02;99812.63;;;2.46;100.00
32131;BME280;18639;50.716;7.086;2022-12-10T10:36:31;99822.06;;;2.44;100.00
32131;BME280;18639;50.716;7.086;2022-12-10T10:39:07;99811.56;;;2.30;100.00
32131;BME280;18639;50.716;7.086;2022-12-10T10:41:36;99825.00;;;2.35;100.00
32131;BME280;18639;50.716;7.086;2022-12-10T10:44:16;99825.06;;;2.33;100.00
32131;BME280;18639;50.716;7.086;2022-12-10T10:46:42;99813.88;;;2.36;100.00
32131;BME280;18639;50.716;7.086;2022-12-10T10:49:33;99817.63;;;2.27;100.00
32131;BME280;18639;50.716;7.086;2022-12-10T10:52:01;99823.16;;;2.38;100.00
32131;BME280;18639;50.716;7.086;2022-12-10T10:57:04;99827.38;;;2.18;100.00
32131;BME280;18639;50.716;7.086;2022-12-10T10:59:35;99831.72;;;2.36;100.00
32131;BME280;18639;50.716;7.086;2022-12-10T11:02:24;99821.53;;;2.36;100.00
32131;BME280;18639;50.716;7.086;2022-12-10T11:04:54;99828.19;;;2.40;100.00
32131;BME280;18639;50.716;7.086;2022-12-10T11:07:36;99828.72;;;2.48;100.00
32131;BME280;18639;50.716;7.086;2022-12-10T11:10:14;99828.59;;;2.51;100.00
32131;BME280;18639;50.716;7.086;2022-12-10T11:12:41;99823.38;;;2.54;100.00
32131;BME280;18639;50.716;7.086;2022-12-10T11:15:39;99815.78;;;2.52;100.00
32131;BME280;18639;50.716;7.086;2022-12-10T11:18:31;99823.56;;;2.49;100.00
32131;BME280;18639;50.716;7.086;2022-12-10T11:21:17;99822.25;;;2.39;98.61
32131;BME280;18639;50.716;7.086;2022-12-10T11:23:54;99819.53;;;2.44;99.15
32131;BME280;18639;50.716;7.086;2022-12-10T11:29:26;99818.41;;;2.51;100.00
32131;BME280;18639;50.716;7.086;2022-12-10T11:35:07;99824.50;;;2.67;100.00
32131;BME280;18639;50.716;7.086;2022-12-10T11:37:44;99827.84;;;2.69;100.00
32131;BME280;18639;50.716;7.086;2022-12-10T11:40:36;99821.72;;;2.73;100.00
32131;BME280;18639;50.716;7.086;2022-12-10T11:43:25;99830.00;;;2.78;100.00
32131;BME280;18639;50.716;7.086;2022-12-10T11:46:07;99828.09;;;2.83;100.00
32131;BME280;18639;50.716;7.086;2022-12-10T11:51:08;99826.81;;;2.73;99.11
32131;BME280;18639;50.716;7.086;2022-12-10T11:53:53;99831.44;;;2.85;98.87
32131;BME280;18639;50.716;7.086;2022-12-10T11:56:31;99836.28;;;2.91;98.85
32131;BME280;18639;50.716;7.086;2022-12-10T11:59:23;99837.31;;;2.87;98.39
32131;BME280;18639;50.716;7.086;2022-12-10T12:07:01;99840.28;;;2.97;99.57
32131;BME280;18639;50.716;7.086;2022-12-10T12:15:28;99834.75;;;2.87;99.82
32131;BME280;18639;50.716;7.086;2022-12-10T12:17:44;99839.13;;;2.84;98.15
32131;BME280;18639;50.716;7.086;2022-12-10T12:20:32;99837.56;;;2.81;98.64
32131;BME280;18639;50.716;7.086;2022-12-10T12:23:03;99843.53;;;2.80;99.11
32131;BME280;18639;50.716;7.086;2022-12-10T12:25:39;99845.19;;;2.81;100.00
32131;BME280;18639;50.716;7.086;2022-12-10T12:28:11;99852.41;;;2.92;100.00
32131;BME280;18639;50.716;7.086;2022-12-10T12:30:41;99838.97;;;2.88;100.00
32131;BME280;18639;50.716;7.086;2022-12-10T12:33:38;99847.31;;;2.92;100.00
32131;BME280;18639;50.716;7.086;2022-12-10T12:36:11;99853.63;;;3.04;99.95
32131;BME280;18639;50.716;7.086;2022-12-10T12:38:51;99850.31;;;3.02;100.00
32131;BME280;18639;50.716;7.086;2022-12-10T12:41:33;99852.84;;;3.02;100.00
32131;BME280;18639;50.716;7.086;2022-12-10T12:44:12;99847.63;;;3.05;100.00
32131;BME280;18639;50.716;7.086;2022-12-10T12:46:46;99856.88;;;3.07;99.69
32131;BME280;18639;50.716;7.086;2022-12-10T12:49:27;99850.69;;;3.13;98.60
32131;BME280;18639;50.716;7.086;2022-12-10T12:52:00;99855.03;;;3.11;97.92
32131;BME280;18639;50.716;7.086;2022-12-10T12:54:25;99844.19;;;3.06;97.29
32131;BME280;18639;50.716;7.086;2022-12-10T12:57:26;99841.00;;;3.01;97.69
32131;BME280;18639;50.716;7.086;2022-12-10T13:00:04;99834.16;;;3.01;98.75
32131;BME280;18639;50.716;7.086;2022-12-10T13:02:46;99836.13;;;2.94;98.54
32131;BME280;18639;50.716;7.086;2022-12-10T13:05:14;99836.22;;;2.93;97.44
32131;BME280;18639;50.716;7.086;2022-12-10T13:07:40;99832.19;;;2.87;97.36
32131;BME280;18639;50.716;7.086;2022-12-10T13:12:44;99848.66;;;3.01;97.70
32131;BME280;18639;50.716;7.086;2022-12-10T13:18:06;99834.09;;;3.03;99.28
32131;BME280;18639;50.716;7.086;2022-12-10T13:23:49;99831.13;;;2.93;99.48
32131;BME280;18639;50.716;7.086;2022-12-10T13:26:26;99845.44;;;2.95;98.85
32131;BME280;18639;50.716;7.086;2022-12-10T13:28:54;99841.25;;;2.94;99.07
32131;BME280;18639;50.716;7.086;2022-12-10T13:31:40;99835.50;;;2.89;98.69
32131;BME280;18639;50.716;7.086;2022-12-10T13:34:20;99845.78;;;2.88;99.23
32131;BME280;18639;50.716;7.086;2022-12-10T13:39:31;99846.94;;;2.81;97.38
32131;BME280;18639;50.716;7.086;2022-12-10T13:45:24;99845.66;;;2.91;99.08
32131;BME280;18639;50.716;7.086;2022-12-10T13:50:45;99851.84;;;2.85;98.94
32131;BME280;18639;50.716;7.086;2022-12-10T13:53:36;99859.44;;;2.87;98.87
32131;BME280;18639;50.716;7.086;2022-12-10T13:59:32;99864.78;;;2.81;100.00
32131;BME280;18639;50.716;7.086;2022-12-10T14:07:29;99859.16;;;2.73;99.19
32131;BME280;18639;50.716;7.086;2022-12-10T14:09:58;99863.53;;;2.69;100.00
32131;BME280;18639;50.716;7.086;2022-12-10T14:12:28;99878.66;;;2.74;100.00
32131;BME280;18639;50.716;7.086;2022-12-10T14:14:58;99867.81;;;2.69;100.00
32131;BME280;18639;50.716;7.086;2022-12-10T14:17:32;99885.44;;;2.75;100.00
32131;BME280;18639;50.716;7.086;2022-12-10T14:19:59;99864.53;;;2.67;100.00
32131;BME280;18639;50.716;7.086;2022-12-10T14:22:34;99878.66;;;2.74;99.91
32131;BME280;18639;50.716;7.086;2022-12-10T14:25:04;99882.94;;;2.73;100.00
32131;BME280;18639;50.716;7.086;2022-12-10T14:27:32;99871.91;;;2.73;100.00
32131;BME280;18639;50.716;7.086;2022-12-10T14:30:05;99884.59;;;2.74;99.23
32131;BME280;18639;50.716;7.086;2022-12-10T14:32:33;99867.31;;;2.61;100.00
32131;BME280;18639;50.716;7.086;2022-12-10T14:35:00;99886.75;;;2.63;100.00
32131;BME280;18639;50.716;7.086;2022-12-10T14:37:29;99874.13;;;2.60;100.00
32131;BME280;18639;50.716;7.086;2022-12-10T14:39:56;99890.66;;;2.72;100.00
32131;BME280;18639;50.716;7.086;2022-12-10T14:42:22;99894.94;;;2.71;100.00
32131;BME280;18639;50.716;7.086;2022-12-10T14:44:54;99897.41;;;2.73;100.00
32131;BME280;18639;50.716;7.086;2022-12-10T14:47:21;99898.38;;;2.70;100.00
32131;BME280;18639;50.716;7.086;2022-12-10T14:49:48;99882.22;;;2.70;100.00
32131;BME280;18639;50.716;7.086;2022-12-10T14:52:23;99879.28;;;2.59;100.00
32131;BME280;18639;50.716;7.086;2022-12-10T14:54:49;99900.28;;;2.65;100.00
32131;BME280;18639;50.716;7.086;2022-12-10T14:57:26;99885.44;;;2.53;100.00
32131;BME280;18639;50.716;7.086;2022-12-10T15:02:38;99898.84;;;2.58;100.00
32131;BME280;18639;50.716;7.086;2022-12-10T15:05:21;99893.00;;;2.56;100.00
32131;BME280;18639;50.716;7.086;2022-12-10T15:07:55;99906.31;;;2.63;100.00
32131;BME280;18639;50.716;7.086;2022-12-10T15:10:25;99906.88;;;2.49;100.00
32131;BME280;18639;50.716;7.086;2022-12-10T15:12:53;99902.59;;;2.49;100.00
32131;BME280;18639;50.716;7.086;2022-12-10T15:20:50;99894.81;;;2.52;100.00
32131;BME280;18639;50.716;7.086;2022-12-10T15:28:29;99895.41;;;2.37;100.00
32131;BME280;18639;50.716;7.086;2022-12-10T15:31:18;99903.25;;;2.33;100.00
32131;BME280;18639;50.716;7.086;2022-12-10T15:33:54;99895.94;;;2.24;100.00
32131;BME280;18639;50.716;7.086;2022-12-10T15:36:31;99896.94;;;2.20;100.00
32131;BME280;18639;50.716;7.086;2022-12-10T15:38:57;99906.41;;;2.16;100.00
32131;BME280;18639;50.716;7.086;2022-12-10T15:41:53;99899.97;;;2.07;100.00
32131;BME280;18639;50.716;7.086;2022-12-10T15:49:24;99895.75;;;2.06;100.00
32131;BME280;18639;50.716;7.086;2022-12-10T15:51:53;99879.13;;;1.96;100.00
32131;BME280;18639;50.716;7.086;2022-12-10T15:54:37;99908.91;;;2.18;100.00
32131;BME280;18639;50.716;7.086;2022-12-10T15:59:40;99915.28;;;2.06;100.00
32131;BME280;18639;50.716;7.086;2022-12-10T16:02:42;99920.91;;;2.14;100.00
32131;BME280;18639;50.716;7.086;2022-12-10T16:07:41;99916.56;;;2.18;100.00
32131;BME280;18639;50.716;7.086;2022-12-10T16:10:09;99878.31;;;1.96;100.00
32131;BME280;18639;50.716;7.086;2022-12-10T16:12:36;99908.13;;;2.16;100.00
32131;BME280;18639;50.716;7.086;2022-12-10T16:15:02;99909.81;;;2.17;100.00
32131;BME280;18639;50.716;7.086;2022-12-10T16:17:29;99916.44;;;2.21;100.00
32131;BME280;18639;50.716;7.086;2022-12-10T16:20:18;99850.94;;;1.78;100.00
32131;BME280;18639;50.716;7.086;2022-12-10T16:22:44;99905.81;;;2.09;100.00
32131;BME280;18639;50.716;7.086;2022-12-10T16:25:10;99915.03;;;2.14;100.00
32131;BME280;18639;50.716;7.086;2022-12-10T16:27:35;99895.84;;;2.03;100.00
32131;BME280;18639;50.716;7.086;2022-12-10T16:30:13;99906.81;;;2.05;100.00
32131;BME280;18639;50.716;7.086;2022-12-10T16:32:39;99903.47;;;2.03;100.00
32131;BME280;18639;50.716;7.086;2022-12-10T16:35:04;99876.03;;;1.88;100.00
32131;BME280;18639;50.716;7.086;2022-12-10T16:37:30;99915.94;;;2.11;100.00
32131;BME280;18639;50.716;7.086;2022-12-10T16:39:56;99892.97;;;1.89;100.00
32131;BME280;18639;50.716;7.086;2022-12-10T16:42:21;99916.41;;;1.99;100.00
32131;BME280;18639;50.716;7.086;2022-12-10T16:44:46;99927.53;;;1.96;100.00
32131;BME280;18639;50.716;7.086;2022-12-10T16:47:12;99921.00;;;1.89;100.00
32131;BME280;18639;50.716;7.086;2022-12-10T16:49:37;99937.91;;;1.92;100.00
32131;BME280;18639;50.716;7.086;2022-12-10T16:52:03;99878.19;;;1.52;100.00
32131;BME280;18639;50.716;7.086;2022-12-10T16:54:29;99918.00;;;1.78;100.00
32131;BME280;18639;50.716;7.086;2022-12-10T16:57:01;99835.94;;;1.23;100.00
32131;BME280;18639;50.716;7.086;2022-12-10T16:59:29;99878.19;;;1.52;100.00
32131;BME280;18639;50.716;7.086;2022-12-10T17:01:54;99937.38;;;1.82;100.00
32131;BME280;18639;50.716;7.086;2022-12-10T17:04:19;99944.97;;;1.84;100.00
32131;BME280;18639;50.716;7.086;2022-12-10T17:07:10;99944.09;;;1.85;100.00
32131;BME280;18639;50.716;7.086;2022-12-10T17:09:36;99938.13;;;1.86;100.00
32131;BME280;18639;50.716;7.086;2022-12-10T17:12:02;99934.06;;;1.80;100.00
32131;BME280;18639;50.716;7.086;2022-12-10T17:14:30;99915.50;;;1.77;100.00
32131;BME280;18639;50.716;7.086;2022-12-10T17:16:58;99869.88;;;1.47;100.00
32131;BME280;18639;50.716;7.086;2022-12-10T17:19:26;99938.81;;;1.89;100.00
32131;BME280;18639;50.716;7.086;2022-12-10T17:21:53;99930.47;;;1.86;100.00
32131;BME280;18639;50.716;7.086;2022-12-10T17:24:30;99939.63;;;1.91;100.00
32131;BME280;18639;50.716;7.086;2022-12-10T17:27:03;99933.66;;;1.92;100.00
32131;BME280;18639;50.716;7.086;2022-12-10T17:29:31;99936.19;;;1.92;100.00
32131;BME280;18639;50.716;7.086;2022-12-10T17:31:57;99933.72;;;1.89;100.00
32131;BME280;18639;50.716;7.086;2022-12-10T17:34:22;99937.06;;;1.91;100.00
32131;BME280;18639;50.716;7.086;2022-12-10T17:36:49;99951.13;;;2.01;100.00
32131;BME280;18639;50.716;7.086;2022-12-10T17:39:17;99946.78;;;2.03;100.00
32131;BME280;18639;50.716;7.086;2022-12-10T17:41:43;99935.91;;;2.00;100.00
32131;BME280;18639;50.716;7.086;2022-12-10T17:44:09;99932.81;;;1.92;100.00
32131;BME280;18639;50.716;7.086;2022-12-10T17:46:35;99937.13;;;1.90;100.00
32131;BME280;18639;50.716;7.086;2022-12-10T17:49:00;99952.34;;;1.91;100.00
32131;BME280;18639;50.716;7.086;2022-12-10T17:51:26;99932.19;;;1.85;100.00
32131;BME280;18639;50.716;7.086;2022-12-10T17:53:52;99955.44;;;1.99;100.00
32131;BME280;18639;50.716;7.086;2022-12-10T17:56:20;99945.47;;;1.93;100.00
32131;BME280;18639;50.716;7.086;2022-12-10T17:58:47;99854.13;;;1.38;100.00
32131;BME280;18639;50.716;7.086;2022-12-10T18:01:13;99899.94;;;1.61;100.00
32131;BME280;18639;50.716;7.086;2022-12-10T18:06:52;99951.69;;;1.86;100.00
32131;BME280;18639;50.716;7.086;2022-12-10T18:09:17;99937.72;;;1.73;100.00
32131;BME280;18639;50.716;7.086;2022-12-10T18:11:43;99958.59;;;1.83;100.00
32131;BME280;18639;50.716;7.086;2022-12-10T18:14:10;99880.47;;;1.35;100.00
32131;BME280;18639;50.716;7.086;2022-12-10T18:16:35;99901.09;;;1.52;100.00
32131;BME280;18639;50.716;7.086;2022-12-10T18:19:06;99945.81;;;1.84;100.00
32131;BME280;18639;50.716;7.086;2022-12-10T18:21:32;99961.09;;;1.84;100.00
32131;BME280;18639;50.716;7.086;2022-12-10T18:23:57;99948.41;;;1.83;100.00
32131;BME280;18639;50.716;7.086;2022-12-10T18:26:24;99957.44;;;1.91;100.00
32131;BME280;18639;50.716;7.086;2022-12-10T18:28:55;99957.63;;;1.87;100.00
32131;BME280;18639;50.716;7.086;2022-12-10T18:31:23;99961.09;;;1.84;100.00
32131;BME280;18639;50.716;7.086;2022-12-10T18:33:54;99965.50;;;1.79;100.00
32131;BME280;18639;50.716;7.086;2022-12-10T18:36:26;99965.63;;;1.76;100.00
32131;BME280;18639;50.716;7.086;2022-12-10T18:38:53;99944.88;;;1.62;100.00
32131;BME280;18639;50.716;7.086;2022-12-10T18:41:19;99966.88;;;1.64;100.00
32131;BME280;18639;50.716;7.086;2022-12-10T18:43:45;99913.88;;;1.26;100.00
32131;BME280;18639;50.716;7.086;2022-12-10T18:46:19;99967.28;;;1.52;100.00
32131;BME280;18639;50.716;7.086;2022-12-10T18:48:44;99880.69;;;1.04;100.00
32131;BME280;18639;50.716;7.086;2022-12-10T18:51:12;99827.00;;;0.62;100.00
32131;BME280;18639;50.716;7.086;2022-12-10T18:53:40;99948.28;;;1.38;100.00
32131;BME280;18639;50.716;7.086;2022-12-10T18:56:05;99865.53;;;0.75;100.00
32131;BME280;18639;50.716;7.086;2022-12-10T18:58:31;99892.56;;;0.79;100.00
32131;BME280;18639;50.716;7.086;2022-12-10T19:00:56;99847.06;;;0.43;100.00
32131;BME280;18639;50.716;7.086;2022-12-10T19:03:21;99970.22;;;1.15;100.00
32131;BME280;18639;50.716;7.086;2022-12-10T19:05:47;99854.75;;;0.42;100.00
32131;BME280;18639;50.716;7.086;2022-12-10T19:08:12;99923.00;;;0.80;100.00
32131;BME280;18639;50.716;7.086;2022-12-10T19:10:41;99907.50;;;0.62;100.00
32131;BME280;18639;50.716;7.086;2022-12-10T19:13:06;99970.72;;;1.00;100.00
32131;BME280;18639;50.716;7.086;2022-12-10T19:15:31;99987.84;;;0.95;100.00
32131;BME280;18639;50.716;7.086;2022-12-10T19:17:58;99996.03;;;1.03;100.00
32131;BME280;18639;50.716;7.086;2022-12-10T19:20:25;99986.00;;;0.99;100.00
32131;BME280;18639;50.716;7.086;2022-12-10T19:22:52;99897.22;;;0.38;100.00
32131;BME280;18639;50.716;7.086;2022-12-10T19:25:18;99990.75;;;0.83;100.00
32131;BME280;18639;50.716;7.086;2022-12-10T19:27:44;99963.94;;;0.73;100.00
32131;BME280;18639;50.716;7.086;2022-12-10T19:30:18;99991.75;;;0.77;100.00
32131;BME280;18639;50.716;7.086;2022-12-10T19:32:44;99878.59;;;0.10;100.00
32131;BME280;18639;50.716;7.086;2022-12-10T19:35:11;99872.94;;;0.00;100.00